createdAt,value
2017-08-06T00:00:37.054Z,17.77
2017-08-06T00:03:05.443Z,17.81
2017-08-06T00:05:33.815Z,17.74
2017-08-06T00:08:02.470Z,17.65
2017-08-06T00:10:30.854Z,17.57
2017-08-06T00:12:59.208Z,17.22
2017-08-06T00:15:27.989Z,17.50
2017-08-06T00:17:56.341Z,17.19
2017-08-06T00:20:24.710Z,17.19
2017-08-06T00:22:53.351Z,17.41
2017-08-06T00:25:21.803Z,17.37
2017-08-06T00:27:50.169Z,17.48
2017-08-06T00:30:18.781Z,17.37
2017-08-06T00:32:47.154Z,17.48
2017-08-06T00:35:15.538Z,17.58
2017-08-06T00:37:44.262Z,17.31
2017-08-06T00:40:12.594Z,17.23
2017-08-06T00:42:40.946Z,16.99
2017-08-06T00:45:09.739Z,17.11
2017-08-06T00:47:38.084Z,16.98
2017-08-06T00:50:06.427Z,16.93
2017-08-06T00:52:35.159Z,16.69
2017-08-06T00:55:03.502Z,16.78
2017-08-06T00:57:32.620Z,16.90
2017-08-06T01:00:01.587Z,16.84
2017-08-06T01:02:29.942Z,16.88
2017-08-06T01:04:58.303Z,16.72
2017-08-06T01:07:27.034Z,16.67
2017-08-06T01:09:55.383Z,16.66
2017-08-06T01:12:23.736Z,16.72
2017-08-06T01:14:52.810Z,16.72
2017-08-06T01:17:21.149Z,16.85
2017-08-06T01:19:49.494Z,16.48
2017-08-06T01:22:18.175Z,16.47
2017-08-06T01:24:46.529Z,16.55
2017-08-06T01:27:14.866Z,16.43
2017-08-06T01:29:43.730Z,16.42
2017-08-06T01:32:12.098Z,16.63
2017-08-06T01:34:40.456Z,16.46
2017-08-06T01:37:09.080Z,16.37
2017-08-06T01:39:37.430Z,16.35
2017-08-06T01:42:05.809Z,16.44
2017-08-06T01:44:34.509Z,16.55
2017-08-06T01:47:02.871Z,16.63
2017-08-06T01:49:31.214Z,16.64
2017-08-06T01:52:00.118Z,16.55
2017-08-06T01:54:28.482Z,16.20
2017-08-06T01:56:57.613Z,16.33
2017-08-06T01:59:26.294Z,16.34
2017-08-06T02:01:54.643Z,16.10
2017-08-06T02:04:22.980Z,16.03
2017-08-06T02:06:51.735Z,16.22
2017-08-06T02:09:20.102Z,16.35
2017-08-06T02:11:48.476Z,16.37
2017-08-06T02:14:17.932Z,16.10
2017-08-06T02:16:46.297Z,16.13
2017-08-06T02:19:14.660Z,16.21
2017-08-06T02:21:43.352Z,16.08
2017-08-06T02:24:11.734Z,16.07
2017-08-06T02:26:40.093Z,16.19
2017-08-06T02:29:09.207Z,16.28
2017-08-06T02:31:37.553Z,16.34
2017-08-06T02:34:05.913Z,16.40
2017-08-06T02:36:34.562Z,16.36
2017-08-06T02:39:02.921Z,16.54
2017-08-06T02:41:31.299Z,16.36
2017-08-06T02:44:00.093Z,16.27
2017-08-06T02:46:28.474Z,16.09
2017-08-06T02:48:56.806Z,16.11
2017-08-06T02:51:28.007Z,16.20
2017-08-06T02:53:56.369Z,16.18
2017-08-06T02:56:24.711Z,16.07
2017-08-06T02:58:53.447Z,16.05
2017-08-06T03:01:21.772Z,15.90
2017-08-06T03:03:50.115Z,15.82
2017-08-06T03:06:19.070Z,16.00
2017-08-06T03:08:47.423Z,15.88
2017-08-06T03:11:15.773Z,15.86
2017-08-06T03:13:44.523Z,15.86
2017-08-06T03:16:12.859Z,15.92
2017-08-06T03:18:41.208Z,16.02
2017-08-06T03:21:09.975Z,15.99
2017-08-06T03:23:38.324Z,16.08
2017-08-06T03:26:06.658Z,15.99
2017-08-06T03:28:35.335Z,16.02
2017-08-06T03:31:03.671Z,15.89
2017-08-06T03:33:32.009Z,16.06
2017-08-06T03:36:00.770Z,16.14
2017-08-06T03:38:29.099Z,15.98
2017-08-06T03:40:57.434Z,16.05
2017-08-06T03:43:26.293Z,15.95
2017-08-06T03:45:54.658Z,15.93
2017-08-06T03:48:23.009Z,15.99
2017-08-06T03:50:51.684Z,15.91
2017-08-06T03:53:20.048Z,16.03
2017-08-06T03:55:48.431Z,16.07
2017-08-06T03:58:17.279Z,16.10
2017-08-06T04:00:45.615Z,16.20
2017-08-06T04:03:13.971Z,16.07
2017-08-06T04:05:42.846Z,16.01
2017-08-06T04:08:11.204Z,16.03
2017-08-06T04:10:39.574Z,15.98
2017-08-06T04:13:08.188Z,15.60
2017-08-06T04:15:36.532Z,15.66
2017-08-06T04:18:04.913Z,15.86
2017-08-06T04:20:34.521Z,15.96
2017-08-06T04:23:02.865Z,16.20
2017-08-06T04:25:31.223Z,16.49
2017-08-06T04:27:59.873Z,16.11
2017-08-06T04:30:28.224Z,15.90
2017-08-06T04:32:56.590Z,16.12
2017-08-06T04:35:25.236Z,16.26
2017-08-06T04:37:53.674Z,16.32
2017-08-06T04:40:22.051Z,16.25
2017-08-06T04:42:51.118Z,16.19
2017-08-06T04:45:19.468Z,16.36
2017-08-06T04:47:48.566Z,16.49
2017-08-06T04:50:17.186Z,16.54
2017-08-06T04:52:45.526Z,16.66
2017-08-06T04:55:13.891Z,16.78
2017-08-06T04:57:42.644Z,16.55
2017-08-06T05:00:10.982Z,16.51
2017-08-06T05:02:39.322Z,16.65
2017-08-06T05:05:08.015Z,16.77
2017-08-06T05:07:36.375Z,16.60
2017-08-06T05:10:04.701Z,16.72
2017-08-06T05:12:33.361Z,16.50
2017-08-06T05:15:01.731Z,16.51
2017-08-06T05:17:30.085Z,16.66
2017-08-06T05:19:58.740Z,16.68
2017-08-06T05:22:27.118Z,16.93
2017-08-06T05:24:55.453Z,16.80
2017-08-06T05:27:24.594Z,16.88
2017-08-06T05:29:52.945Z,16.93
2017-08-06T05:32:22.075Z,16.98
2017-08-06T05:34:50.736Z,16.86
2017-08-06T05:37:19.826Z,17.09
2017-08-06T05:39:48.949Z,17.04
2017-08-06T05:42:17.669Z,17.42
2017-08-06T05:44:46.031Z,17.39
2017-08-06T05:47:14.379Z,17.29
2017-08-06T05:49:43.233Z,17.57
2017-08-06T05:52:11.577Z,17.71
2017-08-06T05:54:39.913Z,17.76
2017-08-06T05:57:08.832Z,17.86
2017-08-06T05:59:37.180Z,17.90
2017-08-06T06:02:05.535Z,18.02
2017-08-06T06:04:34.236Z,18.01
2017-08-06T06:07:02.582Z,18.06
2017-08-06T06:09:30.927Z,18.02
2017-08-06T06:11:59.934Z,18.17
2017-08-06T06:14:28.287Z,18.08
2017-08-06T06:16:56.637Z,17.99
2017-08-06T06:19:25.279Z,18.25
2017-08-06T06:21:53.629Z,18.20
2017-08-06T06:24:21.983Z,18.41
2017-08-06T06:26:50.827Z,18.54
2017-08-06T06:29:19.163Z,18.35
2017-08-06T06:31:47.514Z,18.37
2017-08-06T06:34:16.194Z,18.48
2017-08-06T06:36:44.540Z,18.51
2017-08-06T06:39:12.893Z,18.45
2017-08-06T06:41:41.743Z,18.49
2017-08-06T06:44:10.122Z,18.66
2017-08-06T06:46:38.465Z,18.71
2017-08-06T06:49:07.183Z,18.70
2017-08-06T06:51:35.551Z,18.83
2017-08-06T06:54:03.901Z,19.02
2017-08-06T06:56:32.762Z,18.93
2017-08-06T06:59:01.081Z,19.18
2017-08-06T07:01:29.464Z,19.07
2017-08-06T07:03:58.216Z,18.93
2017-08-06T07:06:26.558Z,19.26
2017-08-06T07:08:54.966Z,19.55
2017-08-06T07:11:23.647Z,19.62
2017-08-06T07:13:52.018Z,19.66
2017-08-06T07:16:20.334Z,19.63
2017-08-06T07:18:50.237Z,19.55
2017-08-06T07:21:18.588Z,19.70
2017-08-06T07:23:46.963Z,19.90
2017-08-06T07:26:15.736Z,20.10
2017-08-06T07:28:44.093Z,20.41
2017-08-06T07:31:12.437Z,20.67
2017-08-06T07:33:41.095Z,20.90
2017-08-06T07:36:09.466Z,20.86
2017-08-06T07:38:37.828Z,20.68
2017-08-06T07:41:06.678Z,20.90
2017-08-06T07:43:35.018Z,20.97
2017-08-06T07:46:03.365Z,20.89
2017-08-06T07:48:31.964Z,21.12
2017-08-06T07:51:00.327Z,21.08
2017-08-06T07:53:28.679Z,21.12
2017-08-06T07:55:57.354Z,21.15
2017-08-06T07:58:25.737Z,21.42
2017-08-06T08:00:54.102Z,21.72
2017-08-06T08:03:23.249Z,22.19
2017-08-06T08:05:51.642Z,21.92
2017-08-06T08:08:19.999Z,21.88
2017-08-06T08:10:48.623Z,21.95
2017-08-06T08:13:16.995Z,21.88
2017-08-06T08:15:45.346Z,21.93
2017-08-06T08:18:14.159Z,22.12
2017-08-06T08:20:42.498Z,22.09
2017-08-06T08:23:10.842Z,22.22
2017-08-06T08:25:39.796Z,22.44
2017-08-06T08:28:08.117Z,22.53
2017-08-06T08:30:36.493Z,22.58
2017-08-06T08:33:05.166Z,22.89
2017-08-06T08:35:33.514Z,22.39
2017-08-06T08:38:01.838Z,23.03
2017-08-06T08:40:30.490Z,23.55
2017-08-06T08:42:58.855Z,23.67
2017-08-06T08:45:27.183Z,22.88
2017-08-06T08:47:55.952Z,22.96
2017-08-06T08:50:24.308Z,23.57
2017-08-06T08:52:52.655Z,23.71
2017-08-06T08:55:21.556Z,24.00
2017-08-06T08:57:49.931Z,24.58
2017-08-06T09:00:19.035Z,24.52
2017-08-06T09:02:47.662Z,23.87
2017-08-06T09:05:15.983Z,23.66
2017-08-06T09:07:45.328Z,23.64
2017-08-06T09:10:14.033Z,23.63
2017-08-06T09:12:42.428Z,24.41
2017-08-06T09:15:11.579Z,24.75
2017-08-06T09:17:40.341Z,25.31
2017-08-06T09:20:08.724Z,24.53
2017-08-06T09:22:37.865Z,25.14
2017-08-06T09:25:06.554Z,25.32
2017-08-06T09:27:34.913Z,25.26
2017-08-06T09:30:03.254Z,25.63
2017-08-06T09:32:32.071Z,25.23
2017-08-06T09:35:00.427Z,25.08
2017-08-06T09:37:29.564Z,25.44
2017-08-06T09:39:58.332Z,25.50
2017-08-06T09:42:26.711Z,25.74
2017-08-06T09:44:55.052Z,26.19
2017-08-06T09:47:23.812Z,26.41
2017-08-06T09:49:52.178Z,26.17
2017-08-06T09:52:20.565Z,26.18
2017-08-06T09:54:49.298Z,26.28
2017-08-06T09:57:18.389Z,26.60
2017-08-06T09:59:47.526Z,26.26
2017-08-06T10:02:16.298Z,26.69
2017-08-06T10:04:44.659Z,26.50
2017-08-06T10:07:13.795Z,26.95
2017-08-06T10:09:42.757Z,26.61
2017-08-06T10:12:11.136Z,26.31
2017-08-06T10:14:40.280Z,26.26
2017-08-06T10:17:09.148Z,26.37
2017-08-06T10:19:37.506Z,26.63
2017-08-06T10:22:05.849Z,26.66
2017-08-06T10:24:34.489Z,26.39
2017-08-06T10:27:02.834Z,26.63
2017-08-06T10:29:31.956Z,26.66
2017-08-06T10:32:00.772Z,27.26
2017-08-06T10:34:29.131Z,26.60
2017-08-06T10:36:57.492Z,26.62
2017-08-06T10:39:26.461Z,26.57
2017-08-06T10:41:55.571Z,26.48
2017-08-06T10:44:24.694Z,26.34
2017-08-06T10:46:53.359Z,26.63
2017-08-06T10:49:21.724Z,26.73
2017-08-06T10:51:50.098Z,26.17
2017-08-06T10:54:18.947Z,26.31
2017-08-06T10:56:47.304Z,25.85
2017-08-06T10:59:15.665Z,25.53
2017-08-06T11:01:44.534Z,26.15
2017-08-06T11:04:12.949Z,26.26
2017-08-06T11:06:41.284Z,26.92
2017-08-06T11:09:10.038Z,27.54
2017-08-06T11:11:38.387Z,27.49
2017-08-06T11:14:07.494Z,27.50
2017-08-06T11:16:37.115Z,27.50
2017-08-06T11:19:05.478Z,27.71
2017-08-06T11:21:33.817Z,27.27
2017-08-06T11:24:02.748Z,27.41
2017-08-06T11:26:31.127Z,27.67
2017-08-06T11:28:59.482Z,27.57
2017-08-06T11:31:28.189Z,26.65
2017-08-06T11:33:56.568Z,26.58
2017-08-06T11:36:24.959Z,27.12
2017-08-06T11:38:53.660Z,27.78
2017-08-06T11:41:22.045Z,27.87
2017-08-06T11:43:50.400Z,27.75
2017-08-06T11:46:19.315Z,27.87
2017-08-06T11:48:47.664Z,27.74
2017-08-06T11:51:16.072Z,27.74
2017-08-06T11:53:44.740Z,27.54
2017-08-06T11:56:13.157Z,27.49
2017-08-06T11:58:41.494Z,27.73
2017-08-06T12:01:10.379Z,27.95
2017-08-06T12:03:38.721Z,28.30
2017-08-06T12:06:07.056Z,27.86
2017-08-06T12:08:35.947Z,27.59
2017-08-06T12:11:04.283Z,27.50
2017-08-06T12:13:32.643Z,27.53
2017-08-06T12:16:01.479Z,27.89
2017-08-06T12:18:29.812Z,28.23
2017-08-06T12:20:58.181Z,28.26
2017-08-06T12:23:26.876Z,27.87
2017-08-06T12:25:55.235Z,28.31
2017-08-06T12:28:23.569Z,28.69
2017-08-06T12:30:52.386Z,29.04
2017-08-06T12:33:20.754Z,28.09
2017-08-06T12:35:49.102Z,28.21
2017-08-06T12:38:17.822Z,28.80
2017-08-06T12:40:46.177Z,28.75
2017-08-06T12:43:14.539Z,28.48
2017-08-06T12:45:43.465Z,28.83
2017-08-06T12:48:11.830Z,28.79
2017-08-06T12:50:40.944Z,28.78
2017-08-06T12:53:09.940Z,29.14
2017-08-06T12:55:38.288Z,29.57
2017-08-06T12:58:06.640Z,29.96
2017-08-06T13:00:35.295Z,29.50
2017-08-06T13:03:03.641Z,29.42
2017-08-06T13:05:31.986Z,28.65
2017-08-06T13:08:00.825Z,28.61
2017-08-06T13:10:29.167Z,28.32
2017-08-06T13:12:57.507Z,28.21
2017-08-06T13:15:26.366Z,27.57
2017-08-06T13:17:54.722Z,27.77
2017-08-06T13:20:23.078Z,28.23
2017-08-06T13:22:51.800Z,27.41
2017-08-06T13:25:20.153Z,27.70
2017-08-06T13:27:48.523Z,28.12
2017-08-06T13:30:17.219Z,28.15
2017-08-06T13:32:45.607Z,28.00
2017-08-06T13:35:13.968Z,28.36
2017-08-06T13:37:42.854Z,28.12
2017-08-06T13:40:11.190Z,28.21
2017-08-06T13:42:39.529Z,27.75
2017-08-06T13:45:08.286Z,27.74
2017-08-06T13:47:36.664Z,27.73
2017-08-06T13:50:05.052Z,27.81
2017-08-06T13:52:33.906Z,27.97
2017-08-06T13:55:02.246Z,28.19
2017-08-06T13:57:30.590Z,28.56
2017-08-06T13:59:59.347Z,28.38
2017-08-06T14:02:27.731Z,28.18
2017-08-06T14:04:56.075Z,28.25
2017-08-06T14:07:25.035Z,28.26
2017-08-06T14:09:53.378Z,27.89
2017-08-06T14:12:21.715Z,28.30
2017-08-06T14:14:50.650Z,28.04
2017-08-06T14:17:19.014Z,27.73
2017-08-06T14:19:48.119Z,27.81
2017-08-06T14:22:16.956Z,28.26
2017-08-06T14:24:45.312Z,28.27
2017-08-06T14:27:13.682Z,28.29
2017-08-06T14:29:42.561Z,28.05
2017-08-06T14:32:10.906Z,27.93
2017-08-06T14:34:40.041Z,28.27
2017-08-06T14:37:08.752Z,28.22
2017-08-06T14:39:37.115Z,27.62
2017-08-06T14:42:05.458Z,27.63
2017-08-06T14:44:35.301Z,27.46
2017-08-06T14:47:03.660Z,27.62
2017-08-06T14:49:32.045Z,27.66
2017-08-06T14:52:00.685Z,27.60
2017-08-06T14:54:29.041Z,27.86
2017-08-06T14:56:57.405Z,27.92
2017-08-06T14:59:26.200Z,27.81
2017-08-06T15:01:54.552Z,27.57
2017-08-06T15:04:22.916Z,27.48
2017-08-06T15:06:51.678Z,27.75
2017-08-06T15:09:20.041Z,27.43
2017-08-06T15:11:48.414Z,27.52
2017-08-06T15:14:17.288Z,27.43
2017-08-06T15:16:45.635Z,27.27
2017-08-06T15:19:13.993Z,27.55
2017-08-06T15:21:42.606Z,27.20
2017-08-06T15:24:10.950Z,27.20
2017-08-06T15:26:39.312Z,27.24
2017-08-06T15:29:08.384Z,26.62
2017-08-06T15:31:36.751Z,26.53
2017-08-06T15:34:05.863Z,26.48
2017-08-06T15:36:34.609Z,26.54
2017-08-06T15:39:02.991Z,26.82
2017-08-06T15:41:32.100Z,26.80
2017-08-06T15:44:01.528Z,27.04
2017-08-06T15:46:29.907Z,27.26
2017-08-06T15:48:58.246Z,27.29
2017-08-06T15:51:27.033Z,27.18
2017-08-06T15:53:56.180Z,27.00
2017-08-06T15:56:24.543Z,26.96
2017-08-06T15:58:53.272Z,27.01
2017-08-06T16:01:21.785Z,27.14
2017-08-06T16:03:50.144Z,27.02
2017-08-06T16:06:18.846Z,27.09
2017-08-06T16:08:47.186Z,27.13
2017-08-06T16:11:15.572Z,26.86
2017-08-06T16:13:44.675Z,26.78
2017-08-06T16:16:13.026Z,26.87
2017-08-06T16:18:41.388Z,26.55
2017-08-06T16:21:10.006Z,26.58
2017-08-06T16:23:38.374Z,26.71
2017-08-06T16:26:06.736Z,26.59
2017-08-06T16:28:35.368Z,26.55
2017-08-06T16:31:03.736Z,26.59
2017-08-06T16:33:32.092Z,26.33
2017-08-06T16:36:01.959Z,26.41
2017-08-06T16:38:31.086Z,26.28
2017-08-06T16:40:59.538Z,26.13
2017-08-06T16:43:28.357Z,26.07
2017-08-06T16:45:56.706Z,25.90
2017-08-06T16:48:25.074Z,25.83
2017-08-06T16:50:53.723Z,25.84
2017-08-06T16:53:22.139Z,25.75
2017-08-06T16:55:51.291Z,25.75
2017-08-06T16:58:20.283Z,25.69
2017-08-06T17:00:48.635Z,25.67
2017-08-06T17:03:16.984Z,25.54
2017-08-06T17:05:45.655Z,25.69
2017-08-06T17:08:14.009Z,25.59
2017-08-06T17:10:42.360Z,25.53
2017-08-06T17:13:11.764Z,25.81
2017-08-06T17:15:40.133Z,25.89
2017-08-06T17:18:09.256Z,26.00
2017-08-06T17:20:38.245Z,26.13
2017-08-06T17:23:06.601Z,26.14
2017-08-06T17:25:35.777Z,26.11
2017-08-06T17:28:04.511Z,26.14
2017-08-06T17:30:32.897Z,25.83
2017-08-06T17:33:01.343Z,25.52
2017-08-06T17:35:30.782Z,25.47
2017-08-06T17:37:59.191Z,25.46
2017-08-06T17:40:27.568Z,25.36
2017-08-06T17:42:56.395Z,25.37
2017-08-06T17:45:24.844Z,25.32
2017-08-06T17:47:53.256Z,25.32
2017-08-06T17:50:22.087Z,25.31
2017-08-06T17:52:50.517Z,25.18
2017-08-06T17:55:19.890Z,25.15
2017-08-06T17:57:48.832Z,25.15
2017-08-06T18:00:17.301Z,25.10
2017-08-06T18:02:45.876Z,25.09
2017-08-06T18:05:14.715Z,25.04
2017-08-06T18:07:43.139Z,24.88
2017-08-06T18:10:11.587Z,24.86
2017-08-06T18:12:40.366Z,24.63
2017-08-06T18:15:08.780Z,24.61
2017-08-06T18:17:37.144Z,24.68
2017-08-06T18:20:05.814Z,24.71
2017-08-06T18:22:34.187Z,24.61
2017-08-06T18:25:02.588Z,24.68
2017-08-06T18:27:31.587Z,24.57
2017-08-06T18:29:59.962Z,24.60
2017-08-06T18:32:28.315Z,24.32
2017-08-06T18:34:56.965Z,24.31
2017-08-06T18:37:25.323Z,24.29
2017-08-06T18:39:53.719Z,24.21
2017-08-06T18:42:22.457Z,24.10
2017-08-06T18:44:50.854Z,24.03
2017-08-06T18:47:19.219Z,23.97
2017-08-06T18:49:48.279Z,23.88
2017-08-06T18:52:17.371Z,23.78
2017-08-06T18:54:45.756Z,23.82
2017-08-06T18:57:14.576Z,23.85
2017-08-06T18:59:42.936Z,23.68
2017-08-06T19:02:12.060Z,23.71
2017-08-06T19:04:40.838Z,23.62
2017-08-06T19:07:09.195Z,23.58
2017-08-06T19:09:38.315Z,23.50
2017-08-06T19:12:07.281Z,23.33
2017-08-06T19:14:35.659Z,23.20
2017-08-06T19:17:04.043Z,23.19
2017-08-06T19:19:32.960Z,23.14
2017-08-06T19:22:01.301Z,23.24
2017-08-06T19:24:30.464Z,23.14
2017-08-06T19:26:59.431Z,23.11
2017-08-06T19:29:27.793Z,23.10
2017-08-06T19:31:56.185Z,23.11
2017-08-06T19:34:24.912Z,22.95
2017-08-06T19:36:53.266Z,22.91
2017-08-06T19:39:21.657Z,22.81
2017-08-06T19:41:50.356Z,22.72
2017-08-06T19:44:18.806Z,22.76
2017-08-06T19:46:47.154Z,22.72
2017-08-06T19:49:15.865Z,22.85
2017-08-06T19:51:44.270Z,22.79
2017-08-06T19:54:12.670Z,22.72
2017-08-06T19:56:41.429Z,22.67
2017-08-06T19:59:09.831Z,22.62
2017-08-06T20:01:38.238Z,22.55
2017-08-06T20:04:07.015Z,22.41
2017-08-06T20:06:35.405Z,22.46
2017-08-06T20:09:04.556Z,22.60
2017-08-06T20:11:33.321Z,22.43
2017-08-06T20:14:01.649Z,22.46
2017-08-06T20:16:30.015Z,22.43
2017-08-06T20:18:58.791Z,22.41
2017-08-06T20:21:27.140Z,22.42
2017-08-06T20:23:55.487Z,22.29
2017-08-06T20:26:24.254Z,22.35
2017-08-06T20:28:52.658Z,22.43
2017-08-06T20:31:21.054Z,22.35
2017-08-06T20:33:50.549Z,22.30
2017-08-06T20:36:18.925Z,22.15
2017-08-06T20:38:47.277Z,22.13
2017-08-06T20:41:16.135Z,22.01
2017-08-06T20:43:44.508Z,22.10
2017-08-06T20:46:12.885Z,22.01
2017-08-06T20:48:41.544Z,22.04
2017-08-06T20:51:09.882Z,21.91
2017-08-06T20:53:38.237Z,21.73
2017-08-06T20:56:06.942Z,21.52
2017-08-06T20:58:35.310Z,21.33
2017-08-06T21:01:03.730Z,21.07
2017-08-06T21:03:32.459Z,21.08
2017-08-06T21:06:00.859Z,21.17
2017-08-06T21:08:29.237Z,20.89
2017-08-06T21:10:58.128Z,20.83
2017-08-06T21:13:26.500Z,20.60
2017-08-06T21:15:54.916Z,20.37
2017-08-06T21:18:23.612Z,20.08
2017-08-06T21:20:51.974Z,20.10
2017-08-06T21:23:20.313Z,20.09
2017-08-06T21:25:49.020Z,20.09
2017-08-06T21:28:17.361Z,20.14
2017-08-06T21:30:45.762Z,20.21
2017-08-06T21:33:14.653Z,20.11
2017-08-06T21:35:43.025Z,20.15
2017-08-06T21:38:11.386Z,19.86
2017-08-06T21:40:40.115Z,19.66
2017-08-06T21:43:08.485Z,19.62
2017-08-06T21:45:36.879Z,19.29
2017-08-06T21:48:05.960Z,19.15
2017-08-06T21:50:34.338Z,19.13
2017-08-06T21:53:02.684Z,19.07
2017-08-06T21:55:31.301Z,18.98
2017-08-06T21:57:59.697Z,19.16
2017-08-06T22:00:28.028Z,19.25
2017-08-06T22:02:56.665Z,19.26
2017-08-06T22:05:25.099Z,19.16
2017-08-06T22:07:53.454Z,19.13
2017-08-06T22:10:22.519Z,19.21
2017-08-06T22:12:50.873Z,19.09
2017-08-06T22:15:19.216Z,19.08
2017-08-06T22:17:48.146Z,19.11
2017-08-06T22:20:16.523Z,18.95
2017-08-06T22:22:44.903Z,18.95
2017-08-06T22:25:13.629Z,19.02
2017-08-06T22:27:41.967Z,19.11
2017-08-06T22:30:10.321Z,19.08
2017-08-06T22:32:39.167Z,19.10
2017-08-06T22:35:07.515Z,19.04
2017-08-06T22:37:35.881Z,18.89
2017-08-06T22:40:05.311Z,18.89
2017-08-06T22:42:33.680Z,18.91
2017-08-06T22:45:02.047Z,18.80
2017-08-06T22:47:30.690Z,18.66
2017-08-06T22:49:59.029Z,18.60
2017-08-06T22:52:27.371Z,18.68
2017-08-06T22:54:56.398Z,18.71
2017-08-06T22:57:24.748Z,18.82
2017-08-06T22:59:53.870Z,18.53
2017-08-06T23:02:22.536Z,18.61
2017-08-06T23:04:51.653Z,18.60
2017-08-06T23:07:20.004Z,18.42
2017-08-06T23:09:48.948Z,18.46
2017-08-06T23:12:17.334Z,18.35
2017-08-06T23:14:45.675Z,18.29
2017-08-06T23:17:14.432Z,18.15
2017-08-06T23:19:42.786Z,18.12
2017-08-06T23:22:11.137Z,18.02
2017-08-06T23:24:40.012Z,17.78
2017-08-06T23:27:08.356Z,17.82
2017-08-06T23:29:36.711Z,17.97
2017-08-06T23:32:05.374Z,18.01
2017-08-06T23:34:33.747Z,17.93
2017-08-06T23:37:02.112Z,17.95
2017-08-06T23:39:30.951Z,17.77
2017-08-06T23:41:59.312Z,17.64
2017-08-06T23:44:27.680Z,17.53
2017-08-06T23:46:56.311Z,17.46
2017-08-06T23:49:24.662Z,17.42
2017-08-06T23:51:53.022Z,17.28
2017-08-06T23:54:21.803Z,17.32
2017-08-06T23:56:50.155Z,17.38
2017-08-06T23:59:19.322Z,17.27
